NWS Home NWS Lubbock West Texas Mesonet South Sector Latest Conditions as of 0142 PM, Sun Nov 17, 2019

Latest   N   C   S   Daily Sum   3hrΔ   24hrΔ   Soil Data 
Site Map   24hr Precip   72hr Precip   Google Plot


Station Time of Last Temp Dew Pt. RH Wind Direction Wind Speed Wind Gust Max Wind Max Temp Min Temp Max RH Min RH Altimeter 1HR Rain Today's Rain Solar Rad
Andrews 2E  01:35 PM 62 31 32% N1116 32 mph 7° @ 1005 AM 62 43 83 32 30.14" 0 0.00 570
Aspermont 3NE  01:35 PM 65 38 38% N1422 31 mph 5° @ 0935 AM 65 36 96 38 30.07" 0 0.00 611
Big Bend NP - Castolon  01:35 PM 76 35 22% N1213 17 mph 329° @ 1236 PM 77 46 94 22 30.06" 0 0.00 601
Big Bend NP - Persimmon Gap  01:35 PM 70 31 23% N811 29 mph 7° @ 1039 AM 71 47 89 23 30.10" 0 0.00 714
Big Lake 1WNW  01:35 PM 60 37 42% N1113 26 mph 342° @ 1201 PM 61 41 86 41 30.09" 0 0.00 469
Brownfield 2S  01:35 PM 59 35 40% N913 35 mph 6° @ 0425 AM 60 39 89 40 30.14" 0 0.00 640
Clyde 2WNW  01:35 PM 63 39 41% N1619 20 mph 331° @ 1026 AM 63 41 84 40 30.04" 0 0.00 612
Colorado City 5NW  01:35 PM 64 36 36% N1417 30 mph 19° @ 1035 AM 65 35 96 34 30.10" 0 0.00 628
Coyanosa 2N  01:35 PM 63 34 34% W79 20 mph 320° @ 0937 AM 63 40 93 33 30.14" 0 0.00 580
Crane 1NNW   01:35 PM 63 35 35% N67 28 mph 178° @ 1213 AM 64 36 95 34 30.12" 0 0.00 611
Dell City  01:35 PM 60 35 38% SE79 21 mph 9° @ 0957 AM 61 34 85 34 30.18" 0 0.00 386
Denver City 7WNW  01:35 PM 59 31 34% NE611 30 mph 2° @ 0630 AM 59 42 78 34 30.15" 0 0.00 635
Doole 3WNW  01:35 PM 65 42 43% NW89 17 mph 319° @ 1229 PM 66 33 96 42 30.01" 0 0.00 647
Fluvanna 3WNW  01:35 PM 60 36 40% N1418 38 mph 13° @ 1005 AM 61 35 94 39 30.10" 0 0.00 614
Fort Chadbourne  01:35 PM 63 39 42% N1418 22 mph 9° @ 1143 AM 63 34 99 41 30.05" 0 0.00 698
Fort Lancaster  01:35 PM 66 40 38% NW1420 25 mph 302° @ 1108 AM 66 38 100 38 30.08" 0 0.00 672
Fort McKavett  01:35 PM 66 43 43% NW1315 18 mph 344° @ 1247 PM 67 39 89 41 30.03" 0 0.00 481
Gail 2ESE  01:35 PM 63 34 35% N1116 31 mph 9° @ 0910 AM 63 35 91 35 30.10" 0 0.00 622
Graham 5SSW  01:35 PM 60 35 41% N1218 36 mph 10° @ 0535 AM 60 39 92 40 30.12" 0 0.00 644
Guadalupe Mtns Natl Park  01:35 PM 53 29 40% SE78 36 mph 301° @ 1231 AM 62 46 51 21 30.22" 0 0.00 459
Haskell 1NW  01:35 PM 63 38 39% N1523 35 mph 15° @ 1015 AM 63 36 90 39 30.06" 0 0.00 589
Hobbs NM 5NW  01:35 PM 61 30 31% E79 32 mph 9° @ 0627 AM 62 40 85 30 30.20" 0 0.00 640
Jayton 1SSE  01:35 PM 63 37 39% N1523 39 mph 7° @ 0815 AM 63 37 95 39 30.09" 0 0.00 623
Junction 1SSW  01:35 PM 67 49 53% NW24 15 mph 205° @ 0925 AM 67 31 100 53 30.01" 0 0.00 566
Kent 9E  01:35 PM 58 31 35% NW68 27 mph 232° @ 1230 AM 62 49 48 34 30.20" 0 0.00 637
Lake Alan Henry 1NW  01:35 PM 63 37 37% NE911 29 mph 26° @ 0938 AM 64 39 94 36 30.10" 0 0.00 610
Lamesa 2SE  01:35 PM 60 36 42% N811 34 mph 9° @ 0950 AM 60 37 94 42 30.13" 0 0.00 670
Lomax 1SSE  01:35 PM 62 35 35% N1619 32 mph 14° @ 0949 AM 63 39 91 35 30.10" 0 0.00 668
McCamey 1SSW  01:35 PM 62 36 37% NW911 23 mph 356° @ 1020 AM 62 40 92 37 30.13" 0 0.00 403
Mertzon 3NNE  01:35 PM 65 39 38% N1315 23 mph 204° @ 1252 AM 66 44 74 37 30.07" 0 0.00 571
New Home  01:35 PM 60 36 40% NE1012 30 mph 14° @ 0901 AM 61 37 95 39 30.14" 0 0.00 633
O'Donnell 1N  01:35 PM 62 37 40% N1318 35 mph 4° @ 0505 AM 62 37 96 40 30.12" 0 0.00 576
Plains 3N  01:35 PM 59 34 41% N1015 32 mph 358° @ 0525 AM 59 42 80 41 30.15" 0 0.00 626
Post 1NE  01:35 PM 63 34 34% N1014 30 mph 20° @ 0945 AM 63 39 91 34 30.11" 0 0.00 617
Rotan 5W  01:35 PM 62 38 40% N1518 33 mph 359° @ 0905 AM 63 39 91 39 30.09" 0 0.00 632
San Angelo 7NW  01:35 PM 65 36 34% NW1317 21 mph 345° @ 1110 AM 65 37 78 34 30.05" 0 0.00 620
Seagraves 1SW  01:35 PM 60 34 38% N1017 32 mph 6° @ 0935 AM 60 39 91 38 30.14" 0 0.00 584
Segovia 7SSW  01:35 PM 66 49 55% NW1113 19 mph 205° @ 0828 AM 66 43 98 54 30.02" 0 0.00 588
Seminole 2NNE  01:35 PM 61 32 34% NE1016 35 mph 7° @ 0430 AM 61 42 85 34 30.14" 0 0.00 636
Sierra Blanca 1SSE  01:35 PM 60 29 31% E12 19 mph 348° @ 0810 AM 60 40 81 31 30.20" 0 0.00 614
Snyder 3E  01:35 PM 63 37 39% N1318 39 mph 10° @ 0935 AM 63 40 94 39 30.09" 0 0.00 572
Snyder 3SSW  01:35 PM 63 37 38% NE1013 38 mph 13° @ 1015 AM 63 36 97 38 30.10" 0 0.00 624
St. Lawrence 5SW  01:35 PM 62 35 36% N1520 33 mph 26° @ 0930 AM 62 36 95 36 30.09" 0 0.00 578
Stamford 5ESE  01:35 PM 63 39 42% N1721 30 mph 3° @ 0937 AM 63 37 93 41 30.07" 0 0.00 620
Sterling City 4WSW  01:35 PM 63 36 37% N1014 25 mph 338° @ 0124 PM 63 33 100 37 30.08" 0 0.00 538
Sundown 8WSW  01:35 PM 60 32 36% N1016 34 mph 4° @ 0405 AM 61 39 77 35 30.15" 0 0.00 572
Sweetwater 11SW   01:35 PM 60 37 42% N1116 34 mph 17° @ 0906 AM 61 39 89 41 30.09" 0 0.00 683
Tahoka 3NNE  01:35 PM 62 36 38% N1619 31 mph 16° @ 0903 AM 62 35 95 38 30.13" 0 0.00 629
Tatum NM 2SW  01:35 PM 58 32 38% N713 32 mph 6° @ 0515 AM 59 40 69 37 30.18" 0 0.00 676
Throckmorton 1SW  01:35 PM 64 39 39% NW1113 24 mph 355° @ 1014 AM 64 37 88 39 30.05" 0 0.00 619
Van Horn 3ENE  01:35 PM 61 31 33% NE1114 23 mph 36° @ 1049 AM 61 36 92 33 30.19" 0 0.00 630
Wall 2E  01:35 PM 64 41 42% N1113 21 mph 352° @ 1220 PM 64 40 84 42 30.05" 0 0.00 531
Weinert 2NNE  01:35 PM 64 37 37% N1620 33 mph 20° @ 1011 AM 65 38 87 36 30.07" 0 0.00 600
Welch  01:35 PM 61 36 39% N1012 34 mph 20° @ 0952 AM 61 34 100 38 30.13" 0 0.00 665

West Texas Mesonet Home   Site Map/Menu  NWS Lubbock Soil Data  Daily Summary Page  24hr Precip  72hr Precip  Google Plot